Time;durP1;ratioP1;P1;durP2;ratioP2;P2;SDS_P1;SDS_P2;PMS_P1;PMS_P2;Temp;Humidity;BMP_temperature;BMP_pressure;BME280_temperature;BME280_humidity;BME280_pressure;Samples;Min_cycle;Max_cycle;Signal;HPM_P1;HPM_P2
2022/03/19 00:01:24;;;;;;;11.57;6.70;;;;;8.10;103654.00;;;;10546071;28;20204;-76
2022/03/19 00:06:28;;;;;;;14.17;6.87;;;;;8.10;103646.00;;;;10514301;28;20202;-76
2022/03/19 00:11:30;;;;;;;10.70;7.23;;;;;8.00;103649.00;;;;10563790;28;20184;-76
2022/03/19 00:16:32;;;;;;;10.63;7.50;;;;;8.10;103655.00;;;;10521737;28;20192;-77
2022/03/19 00:21:36;;;;;;;14.90;7.50;;;;;8.00;103652.00;;;;10546200;28;20200;-77
2022/03/19 00:26:39;;;;;;;13.03;6.77;;;;;8.00;103651.00;;;;10547186;28;20271;-76
2022/03/19 00:31:41;;;;;;;16.57;7.03;;;;;8.00;103646.00;;;;10550056;28;20291;-76
2022/03/19 00:36:43;;;;;;;11.27;6.67;;;;;8.00;103650.00;;;;10529627;28;20216;-77
2022/03/19 00:41:46;;;;;;;11.57;7.23;;;;;7.90;103635.00;;;;10536523;28;20204;-77
2022/03/19 00:46:48;;;;;;;10.67;7.13;;;;;7.80;103643.00;;;;10536446;28;20203;-77
2022/03/19 00:51:51;;;;;;;13.90;8.07;;;;;7.80;103643.00;;;;10553439;28;20191;-77
2022/03/19 00:56:53;;;;;;;12.57;7.57;;;;;7.70;103640.00;;;;10536653;28;20275;-77
2022/03/19 01:01:56;;;;;;;11.57;7.37;;;;;7.60;103647.00;;;;10568392;28;20204;-77
2022/03/19 01:06:58;;;;;;;13.20;8.40;;;;;7.50;103641.00;;;;10494373;28;20201;-77
2022/03/19 01:12:00;;;;;;;13.17;7.80;;;;;7.50;103640.00;;;;10552448;28;20189;-77
2022/03/19 01:17:03;;;;;;;14.20;8.30;;;;;7.50;103638.00;;;;10569393;28;20258;-77
2022/03/19 01:22:05;;;;;;;11.23;7.53;;;;;7.40;103641.00;;;;10568669;28;20282;-77
2022/03/19 01:27:07;;;;;;;13.60;7.73;;;;;7.40;103633.00;;;;10552351;28;20196;-77
2022/03/19 01:32:09;;;;;;;14.13;7.33;;;;;7.40;103634.00;;;;10535081;28;20241;-78
2022/03/19 01:37:11;;;;;;;10.87;6.63;;;;;7.30;103622.00;;;;10507348;28;20224;-77
2022/03/19 01:42:30;;;;;;;12.77;7.20;;;;;7.30;103618.00;;;;10518225;28;20233;-77
2022/03/19 01:47:33;;;;;;;10.97;7.20;;;;;7.20;103610.00;;;;10534785;28;20245;-77
2022/03/19 01:52:35;;;;;;;13.47;8.27;;;;;7.20;103609.00;;;;10534137;28;20280;-77
2022/03/19 01:57:41;;;;;;;13.33;7.37;;;;;7.20;103601.00;;;;10550672;28;20226;-77
2022/03/19 02:02:46;;;;;;;11.77;6.67;;;;;7.10;103592.00;;;;10534860;28;20257;-77
2022/03/19 02:07:50;;;;;;;15.00;6.87;;;;;7.10;103601.00;;;;10515617;28;20204;-77
2022/03/19 02:12:53;;;;;;;16.13;6.97;;;;;7.00;103589.00;;;;10550920;28;20255;-77
2022/03/19 02:17:55;;;;;;;11.87;6.80;;;;;7.00;103588.00;;;;10528151;28;20190;-77
2022/03/19 02:28:17;;;;;;;13.07;7.03;;;;;6.90;103581.00;;;;10549847;28;20196;-77
2022/03/19 02:33:19;;;;;;;11.87;6.83;;;;;6.90;103573.00;;;;10533621;28;20662;-77
2022/03/19 02:38:21;;;;;;;14.40;6.93;;;;;6.90;103585.00;;;;10511145;28;20681;-78
2022/03/19 02:43:23;;;;;;;14.27;6.90;;;;;6.90;103573.00;;;;10532645;28;20192;-77
2022/03/19 02:48:25;;;;;;;10.50;7.23;;;;;6.80;103584.00;;;;10530996;28;20192;-77
2022/03/19 02:53:27;;;;;;;14.17;7.57;;;;;6.70;103567.00;;;;10531357;28;20237;-77
2022/03/19 02:58:29;;;;;;;13.93;8.03;;;;;6.60;103571.00;;;;10546221;28;20249;-77
2022/03/19 03:03:31;;;;;;;13.70;7.53;;;;;6.60;103567.00;;;;10548747;28;20237;-77
2022/03/19 03:08:33;;;;;;;12.40;8.33;;;;;6.50;103557.00;;;;10531881;28;20185;-77
2022/03/19 03:13:35;;;;;;;15.33;9.03;;;;;6.50;103560.00;;;;10531152;28;20257;-77
2022/03/19 03:18:38;;;;;;;14.63;8.03;;;;;6.40;103556.00;;;;10531812;28;20204;-77
2022/03/19 03:23:40;;;;;;;18.07;9.13;;;;;6.30;103563.00;;;;10548091;28;20196;-77
2022/03/19 03:28:42;;;;;;;15.83;9.80;;;;;6.20;103560.00;;;;10515208;28;20192;-77
2022/03/19 03:33:44;;;;;;;13.77;8.73;;;;;6.10;103565.00;;;;10547779;28;20184;-77
2022/03/19 03:38:46;;;;;;;15.80;10.67;;;;;6.00;103555.00;;;;10530191;28;20211;-77
2022/03/19 03:43:48;;;;;;;17.30;9.57;;;;;5.90;103541.00;;;;10530327;28;20192;-77
2022/03/19 03:48:50;;;;;;;18.67;10.57;;;;;5.90;103555.00;;;;10530716;28;20291;-77
2022/03/19 03:53:51;;;;;;;14.20;10.30;;;;;5.80;103546.00;;;;10546749;28;20707;-77
2022/03/19 03:58:53;;;;;;;16.13;9.07;;;;;5.70;103556.00;;;;10547446;28;20316;-77
2022/03/19 04:03:55;;;;;;;15.77;10.60;;;;;5.60;103551.00;;;;10528324;28;20196;-77
2022/03/19 04:08:57;;;;;;;14.90;11.03;;;;;5.50;103548.00;;;;10556041;28;20265;-77
2022/03/19 04:13:59;;;;;;;18.67;12.03;;;;;5.50;103547.00;;;;10538947;28;20184;-77
2022/03/19 04:19:02;;;;;;;16.20;11.77;;;;;5.40;103552.00;;;;10538716;28;20192;-78
2022/03/19 04:24:05;;;;;;;18.13;11.87;;;;;5.30;103542.00;;;;10538771;28;20192;-77
2022/03/19 04:29:06;;;;;;;21.93;12.33;;;;;5.20;103538.00;;;;10538346;28;20200;-77
2022/03/19 04:34:08;;;;;;;18.67;12.93;;;;;5.20;103550.00;;;;10539072;28;20211;-77
2022/03/19 04:39:11;;;;;;;17.53;12.50;;;;;5.10;103549.00;;;;10538356;28;20216;-78
2022/03/19 04:44:15;;;;;;;19.73;12.43;;;;;5.10;103542.00;;;;10553973;28;20539;-77
2022/03/19 04:49:17;;;;;;;16.50;12.57;;;;;5.10;103545.00;;;;10537005;28;20200;-77
2022/03/19 04:54:20;;;;;;;17.90;13.97;;;;;5.00;103552.00;;;;10537332;28;20180;-77
2022/03/19 04:59:22;;;;;;;17.20;13.67;;;;;5.00;103548.00;;;;10527803;28;20200;-77
2022/03/19 05:04:23;;;;;;;23.40;13.10;;;;;4.90;103548.00;;;;10504138;28;20673;-77
2022/03/19 05:14:46;;;;;;;21.13;13.10;;;;;4.80;103542.00;;;;10551698;28;20192;-76
2022/03/19 05:19:48;;;;;;;21.20;14.73;;;;;4.80;103554.00;;;;10532922;28;20204;-76
2022/03/19 05:24:49;;;;;;;21.35;17.05;;;;;5.00;103553.00;;;;10535019;28;20540;-76
2022/03/19 05:29:52;;;;;;;21.83;14.07;;;;;4.70;103546.00;;;;10520774;28;20196;-78
2022/03/19 05:34:57;;;;;;;26.10;14.50;;;;;4.60;103542.00;;;;10586800;28;20281;-77
2022/03/19 05:40:00;;;;;;;19.67;14.10;;;;;4.50;103548.00;;;;10569210;28;20192;-78
2022/03/19 05:45:03;;;;;;;21.13;14.53;;;;;4.50;103541.00;;;;10517836;28;20197;-77
2022/03/19 05:50:06;;;;;;;15.93;12.97;;;;;4.50;103543.00;;;;10534440;28;20226;-78
2022/03/19 05:55:09;;;;;;;21.03;14.23;;;;;4.50;103546.00;;;;10551183;28;20207;-78
2022/03/19 06:00:11;;;;;;;19.63;14.13;;;;;4.50;103549.00;;;;10525525;28;20209;-77
2022/03/19 06:05:13;;;;;;;21.40;12.83;;;;;4.70;103538.00;;;;10541677;28;20282;-77
2022/03/19 06:10:16;;;;;;;24.20;14.33;;;;;4.70;103555.00;;;;10550549;28;20188;-78
2022/03/19 06:15:18;;;;;;;20.20;13.17;;;;;4.90;103554.00;;;;10533647;28;20709;-77
2022/03/19 06:20:22;;;;;;;19.53;13.53;;;;;5.00;103559.00;;;;10550524;28;20204;-77
2022/03/19 06:25:24;;;;;;;23.27;13.90;;;;;5.20;103554.00;;;;10533845;28;20191;-78
2022/03/19 06:30:27;;;;;;;19.33;13.47;;;;;5.70;103562.00;;;;10529573;28;20499;-77
2022/03/19 06:40:50;;;;;;;21.43;12.67;;;;;6.20;103557.00;;;;10566390;28;20219;-78
2022/03/19 06:45:57;;;;;;;21.13;12.80;;;;;6.40;103559.00;;;;10530825;28;20237;-77
2022/03/19 06:50:59;;;;;;;26.33;12.67;;;;;6.60;103559.00;;;;10518200;28;20185;-77
2022/03/19 06:56:03;;;;;;;18.13;12.53;;;;;6.90;103572.00;;;;10557984;28;20738;-77
2022/03/19 07:01:05;;;;;;;19.17;12.80;;;;;7.20;103562.00;;;;10536347;28;20319;-78
2022/03/19 07:06:07;;;;;;;16.00;12.17;;;;;7.60;103574.00;;;;10560880;28;20550;-78
2022/03/19 07:11:30;;;;;;;16.87;11.63;;;;;8.00;103568.00;;;;10552972;28;20184;-79
2022/03/19 07:16:32;;;;;;;18.50;12.03;;;;;8.30;103570.00;;;;10506139;28;20642;-79
2022/03/19 07:21:34;;;;;;;16.97;10.47;;;;;8.60;103576.00;;;;10545093;28;20207;-78
2022/03/19 07:26:36;;;;;;;13.73;10.30;;;;;8.90;103573.00;;;;10518125;28;20200;-78
2022/03/19 07:31:39;;;;;;;16.10;10.43;;;;;9.10;103571.00;;;;10534284;28;20451;-79
2022/03/19 07:36:43;;;;;;;16.00;10.43;;;;;9.20;103571.00;;;;10514939;22;20301;-76
2022/03/19 07:41:52;;;;;;;14.23;9.23;;;;;9.50;103576.00;;;;10467379;28;20201;-76
2022/03/19 07:47:01;;;;;;;14.40;9.83;;;;;9.80;103557.00;;;;10436686;28;20193;-77
2022/03/19 07:52:05;;;;;;;12.50;9.33;;;;;10.10;103553.00;;;;10480097;28;20658;-77
2022/03/19 07:57:09;;;;;;;13.00;9.03;;;;;10.20;103549.00;;;;10424816;28;20201;-77
2022/03/19 08:02:12;;;;;;;14.37;8.87;;;;;10.40;103548.00;;;;10445745;28;20214;-77
2022/03/19 08:07:19;;;;;;;14.37;9.23;;;;;10.60;103547.00;;;;10460028;28;20721;-76
2022/03/19 08:12:25;;;;;;;14.87;8.90;;;;;10.80;103546.00;;;;10446005;28;20189;-77
2022/03/19 08:17:27;;;;;;;11.47;8.83;;;;;11.10;103535.00;;;;10472071;28;20198;-76
2022/03/19 08:22:30;;;;;;;10.37;7.60;;;;;11.60;103529.00;;;;10476549;28;20229;-77
2022/03/19 08:27:32;;;;;;;8.70;6.33;;;;;12.00;103523.00;;;;10443220;28;20210;-78
2022/03/19 08:32:34;;;;;;;11.23;7.03;;;;;12.10;103536.00;;;;10450283;28;20202;-77
2022/03/19 08:37:36;;;;;;;9.53;6.60;;;;;12.30;103525.00;;;;10504221;28;20233;-77
2022/03/19 08:42:38;;;;;;;9.23;6.80;;;;;12.50;103520.00;;;;10485324;28;20292;-77
2022/03/19 08:47:40;;;;;;;7.97;5.57;;;;;12.80;103516.00;;;;10524627;28;20193;-78
2022/03/19 08:52:42;;;;;;;8.67;5.93;;;;;13.10;103520.00;;;;10523415;28;20185;-77
2022/03/19 08:57:44;;;;;;;9.53;6.13;;;;;13.40;103514.00;;;;10509549;28;20278;-77
2022/03/19 09:02:46;;;;;;;9.60;5.10;;;;;13.70;103504.00;;;;10523745;28;20547;-77
2022/03/19 09:07:49;;;;;;;8.40;4.70;;;;;13.80;103506.00;;;;10513731;28;20215;-76
2022/03/19 09:12:51;;;;;;;11.37;5.10;;;;;13.80;103497.00;;;;10500501;28;20204;-77
2022/03/19 09:17:53;;;;;;;8.43;5.23;;;;;14.20;103503.00;;;;10494709;28;20225;-77
2022/03/19 09:22:57;;;;;;;10.93;4.57;;;;;14.30;103495.00;;;;10520650;28;20240;-76
2022/03/19 09:27:59;;;;;;;9.50;5.27;;;;;14.60;103488.00;;;;10515101;28;20189;-76
2022/03/19 09:33:01;;;;;;;9.97;5.07;;;;;14.90;103480.00;;;;10518691;28;20188;-76
2022/03/19 09:38:19;;;;;;;9.17;4.70;;;;;15.10;103479.00;;;;10520698;28;20241;-77
2022/03/19 09:43:23;;;;;;;8.17;4.90;;;;;15.40;103472.00;;;;10523054;28;20255;-77
2022/03/19 09:48:25;;;;;;;9.40;4.90;;;;;15.70;103470.00;;;;10533853;28;20276;-77
2022/03/19 09:53:30;;;;;;;8.20;4.43;;;;;16.10;103452.00;;;;10505454;28;20197;-76
2022/03/19 09:58:52;;;;;;;8.53;4.37;;;;;15.90;103457.00;;;;10498184;28;20578;-77
2022/03/19 10:04:00;;;;;;;9.80;4.27;;;;;15.80;103452.00;;;;10495030;28;20213;-77
2022/03/19 10:09:02;;;;;;;8.30;4.20;;;;;16.00;103449.00;;;;10524857;28;20706;-77
2022/03/19 10:14:06;;;;;;;11.87;4.00;;;;;16.20;103427.00;;;;10505664;28;20185;-77
2022/03/19 10:19:08;;;;;;;10.27;4.30;;;;;16.60;103421.00;;;;10522355;28;20197;-76
2022/03/19 10:24:26;;;;;;;8.90;3.70;;;;;16.70;103415.00;;;;10548829;28;20236;-76
2022/03/19 10:29:30;;;;;;;7.03;4.00;;;;;16.60;103409.00;;;;10532332;28;20664;-77
2022/03/19 10:34:34;;;;;;;9.67;4.23;;;;;16.80;103419.00;;;;10550412;28;20224;-77
2022/03/19 10:39:36;;;;;;;7.80;4.35;;;;;16.90;103412.00;;;;10492750;28;20200;-77
2022/03/19 10:44:39;;;;;;;11.05;3.85;;;;;17.10;103381.00;;;;10542343;28;20264;-76
2022/03/19 10:49:42;;;;;;;3.75;2.83;;;;;17.30;103387.00;;;;10513842;28;20189;-77
2022/03/19 10:54:44;;;;;;;5.80;3.60;;;;;17.40;103374.00;;;;10489176;28;20189;-76
2022/03/19 10:59:46;;;;;;;4.38;3.28;;;;;17.20;103362.00;;;;10502367;28;20212;-77
2022/03/19 11:04:50;;;;;;;4.78;3.33;;;;;17.20;103352.00;;;;10517861;28;20189;-77
2022/03/19 11:09:56;;;;;;;4.15;2.83;;;;;17.40;103345.00;;;;10504479;28;20193;-77
2022/03/19 11:15:02;;;;;;;9.52;3.47;;;;;17.60;103339.00;;;;10499102;28;20280;-77
2022/03/19 11:20:08;;;;;;;5.70;3.03;;;;;17.70;103322.00;;;;10513484;28;20208;-77
2022/03/19 11:25:22;;;;;;;6.22;3.47;;;;;17.90;103316.00;;;;10504138;28;20188;-76
2022/03/19 11:30:34;;;;;;;5.32;3.33;;;;;18.10;103303.00;;;;10502362;28;20189;-77
2022/03/19 11:35:41;;;;;;;8.82;3.40;;;;;18.10;103297.00;;;;10535252;28;20224;-77
2022/03/19 11:40:47;;;;;;;6.63;3.15;;;;;18.10;103295.00;;;;10500646;28;20243;-77
2022/03/19 11:45:54;;;;;;;7.10;3.13;;;;;18.20;103285.00;;;;10497464;28;20197;-75
2022/03/19 11:51:28;;;;;;;6.95;3.20;;;;;18.60;103285.00;;;;10497673;28;20602;-76
2022/03/19 11:56:39;;;;;;;5.97;3.67;;;;;18.40;103267.00;;;;10502544;28;20192;-76
2022/03/19 12:02:05;;;;;;;7.75;3.63;;;;;18.20;103265.00;;;;10517949;28;20216;-77
2022/03/19 12:07:07;;;;;;;6.40;3.50;;;;;18.50;103261.00;;;;10535284;28;20196;-77
2022/03/19 12:12:11;;;;;;;6.30;3.45;;;;;18.40;103247.00;;;;10510796;28;20311;-76
2022/03/19 12:17:19;;;;;;;7.63;3.80;;;;;18.60;103231.00;;;;10482611;28;20279;-77
2022/03/19 12:22:37;;;;;;;9.50;4.00;;;;;18.90;103223.00;;;;10493569;28;20205;-78
2022/03/19 12:27:53;;;;;;;6.63;3.63;;;;;18.90;103208.00;;;;10511213;28;20203;-78
2022/03/19 12:32:57;;;;;;;7.78;4.18;;;;;18.70;103193.00;;;;10477627;28;20275;-78
2022/03/19 12:37:59;;;;;;;6.47;4.25;;;;;18.60;103184.00;;;;10507738;28;20228;-77
2022/03/19 12:43:00;;;;;;;5.97;3.70;;;;;18.70;103165.00;;;;10500724;28;20210;-77
2022/03/19 12:48:11;;;;;;;8.85;4.75;;;;;18.60;103167.00;;;;10519174;28;20242;-77
2022/03/19 12:53:38;;;;;;;7.90;5.15;;;;;18.60;103162.00;;;;10542076;28;20191;-77
2022/03/19 12:58:45;;;;;;;6.15;3.85;;;;;18.50;103141.00;;;;10525269;28;20216;-77
2022/03/19 13:03:56;;;;;;;6.03;3.92;;;;;18.60;103128.00;;;;10533060;28;20231;-77
2022/03/19 13:08:58;;;;;;;8.98;4.80;;;;;18.50;103115.00;;;;10474218;28;20196;-77
2022/03/19 13:14:02;;;;;;;8.68;5.65;;;;;18.60;103118.00;;;;10504684;28;20193;-77
2022/03/19 13:19:10;;;;;;;7.78;4.45;;;;;18.80;103101.00;;;;10514871;28;20246;-76
2022/03/19 13:24:12;;;;;;;9.48;4.65;;;;;18.30;103085.00;;;;10481729;28;20209;-78
2022/03/19 13:29:25;;;;;;;7.15;4.53;;;;;18.90;103074.00;;;;10491925;28;20246;-78
2022/03/19 13:34:37;;;;;;;7.13;4.07;;;;;19.30;103068.00;;;;10513367;28;20397;-78
2022/03/19 13:39:46;;;;;;;7.88;3.97;;;;;20.70;103052.00;;;;10517192;28;20285;-77
2022/03/19 13:45:04;;;;;;;9.35;4.13;;;;;23.00;103027.00;;;;10486924;28;20670;-78
2022/03/19 13:50:11;;;;;;;6.85;3.80;;;;;23.40;102998.00;;;;10524584;28;20708;-78
2022/03/19 13:55:19;;;;;;;4.93;3.50;;;;;24.30;102987.00;;;;10533939;28;20189;-78
2022/03/19 14:00:37;;;;;;;9.30;3.20;;;;;24.50;102959.00;;;;10526012;28;20209;-78
2022/03/19 14:05:43;;;;;;;6.38;2.83;;;;;25.10;102939.00;;;;10519433;28;20228;-77
2022/03/19 14:10:48;;;;;;;3.80;2.65;;;;;25.30;102926.00;;;;10524924;28;20574;-78
2022/03/19 14:15:52;;;;;;;5.78;2.90;;;;;25.10;102919.00;;;;10489130;28;20205;-77
2022/03/19 14:20:55;;;;;;;6.05;2.92;;;;;23.50;102975.00;;;;10505404;28;20559;-78
2022/03/19 14:25:57;;;;;;;4.28;2.60;;;;;24.10;102879.00;;;;10491848;28;20547;-78
2022/03/19 14:30:59;;;;;;;6.13;2.90;;;;;25.60;102869.00;;;;10491374;28;20197;-77
2022/03/19 14:36:04;;;;;;;7.82;2.30;;;;;26.00;102854.00;;;;10530035;28;20649;-77
2022/03/19 14:41:16;;;;;;;2.97;1.95;;;;;26.20;102897.00;;;;10566497;28;20242;-77
2022/03/19 14:46:18;;;;;;;2.58;2.10;;;;;24.00;102895.00;;;;10495970;28;20567;-76
2022/03/19 14:51:23;;;;;;;3.92;2.13;;;;;24.30;102863.00;;;;10491320;28;20578;-77
2022/03/19 14:56:25;;;;;;;2.72;1.70;;;;;21.90;102878.00;;;;10497940;28;20201;-77
2022/03/19 15:01:29;;;;;;;6.57;1.52;;;;;22.20;102884.00;;;;10478148;28;20248;-77
2022/03/19 15:06:31;;;;;;;3.03;1.42;;;;;21.50;102844.00;;;;10509911;28;20246;-77
2022/03/19 15:11:33;;;;;;;5.18;1.58;;;;;23.00;102807.00;;;;10506237;28;20196;-76
2022/03/19 15:16:35;;;;;;;2.75;1.70;;;;;22.70;102853.00;;;;10505322;28;20201;-77
2022/03/19 15:21:39;;;;;;;2.80;1.38;;;;;20.20;102901.00;;;;10520482;28;20209;-77
2022/03/19 15:26:41;;;;;;;4.53;1.40;;;;;19.40;102875.00;;;;10505300;28;20199;-77
2022/03/19 15:31:43;;;;;;;4.30;1.35;;;;;21.50;102836.00;;;;10522259;28;20666;-77
2022/03/19 15:36:48;;;;;;;2.38;1.70;;;;;20.50;102871.00;;;;10551807;28;20221;-77
2022/03/19 15:41:50;;;;;;;5.53;1.80;;;;;19.50;102869.00;;;;10521882;28;20205;-76
2022/03/19 15:46:52;;;;;;;3.92;1.92;;;;;18.20;102864.00;;;;10505114;28;20193;-77
2022/03/19 15:51:55;;;;;;;4.20;1.58;;;;;17.30;102870.00;;;;10470333;28;20217;-77
2022/03/19 15:56:57;;;;;;;3.90;1.70;;;;;16.30;102868.00;;;;10479709;28;20190;-76
2022/03/19 16:01:59;;;;;;;7.72;1.98;;;;;15.30;102872.00;;;;10525491;28;20208;-76
2022/03/19 16:07:02;;;;;;;3.90;2.47;;;;;14.80;102857.00;;;;10486568;28;20203;-76
2022/03/19 16:12:04;;;;;;;6.23;2.00;;;;;14.60;102849.00;;;;10487204;28;20180;-75
2022/03/19 16:17:06;;;;;;;6.57;1.93;;;;;14.10;102855.00;;;;10487218;28;20222;-75
2022/03/19 16:22:07;;;;;;;7.43;2.23;;;;;13.90;102843.00;;;;10537529;28;20205;-76
2022/03/19 16:27:09;;;;;;;8.47;2.27;;;;;13.70;102847.00;;;;10503268;28;20258;-76
2022/03/19 16:32:11;;;;;;;6.93;2.23;;;;;13.80;102840.00;;;;10520030;28;20540;-76
2022/03/19 16:37:14;;;;;;;4.00;1.93;;;;;13.40;102842.00;;;;10519625;28;20229;-76
2022/03/19 16:42:16;;;;;;;8.10;1.90;;;;;13.20;102844.00;;;;10520436;28;20208;-77
2022/03/19 16:47:18;;;;;;;4.50;2.07;;;;;13.00;102837.00;;;;10487178;28;20275;-76
2022/03/19 16:52:20;;;;;;;5.47;2.20;;;;;12.90;102829.00;;;;10503310;28;20185;-77
2022/03/19 16:57:24;;;;;;;3.30;1.73;;;;;12.70;102828.00;;;;10503449;28;20544;-77
2022/03/19 17:02:25;;;;;;;7.50;2.33;;;;;12.50;102835.00;;;;10519884;28;20197;-77
2022/03/19 17:07:28;;;;;;;4.33;1.80;;;;;12.40;102820.00;;;;10536838;28;20197;-76
2022/03/19 17:12:30;;;;;;;3.57;2.00;;;;;12.20;102835.00;;;;10489181;28;20193;-76
2022/03/19 17:17:32;;;;;;;5.33;1.70;;;;;12.10;102836.00;;;;10493286;28;20251;-76
2022/03/19 17:22:35;;;;;;;6.63;1.87;;;;;11.90;102832.00;;;;10543989;28;20674;-77
2022/03/19 17:27:37;;;;;;;3.73;1.50;;;;;11.80;102820.00;;;;10476496;28;20201;-77
2022/03/19 17:32:41;;;;;;;4.43;1.80;;;;;11.60;102827.00;;;;10509486;28;20189;-77
2022/03/19 17:37:43;;;;;;;4.03;1.10;;;;;11.40;102822.00;;;;10508875;28;20220;-77
2022/03/19 17:42:45;;;;;;;2.27;1.20;;;;;11.30;102822.00;;;;10526951;28;20200;-77
2022/03/19 17:47:47;;;;;;;3.03;1.20;;;;;11.20;102820.00;;;;10509619;28;20200;-77
2022/03/19 17:52:50;;;;;;;5.87;1.40;;;;;11.10;102825.00;;;;10492468;28;20558;-77
2022/03/19 17:57:54;;;;;;;3.00;1.03;;;;;10.90;102829.00;;;;10525459;28;20205;-77
2022/03/19 18:02:57;;;;;;;2.30;1.43;;;;;10.70;102830.00;;;;10526205;28;20197;-76
2022/03/19 18:08:00;;;;;;;7.37;1.40;;;;;10.60;102842.00;;;;10517633;28;20818;-77
2022/03/19 18:13:05;;;;;;;5.97;1.60;;;;;10.50;102832.00;;;;10492990;28;20217;-77
2022/03/19 18:18:06;;;;;;;4.43;1.90;;;;;10.40;102824.00;;;;10524736;28;20209;-77
2022/03/19 18:23:08;;;;;;;4.93;2.00;;;;;10.30;102828.00;;;;10498605;28;20200;-77
2022/03/19 18:28:10;;;;;;;3.10;1.60;;;;;10.20;102811.00;;;;10519867;28;20189;-76
2022/03/19 18:33:13;;;;;;;3.47;1.60;;;;;10.10;102826.00;;;;10491089;28;20177;-76
2022/03/19 18:38:15;;;;;;;6.53;2.10;;;;;10.10;102821.00;;;;10490021;28;20646;-76
2022/03/19 18:43:17;;;;;;;3.80;2.10;;;;;10.00;102831.00;;;;10523367;28;20205;-77
2022/03/19 18:48:19;;;;;;;5.13;1.70;;;;;9.80;102817.00;;;;10522921;28;20234;-77
2022/03/19 18:53:21;;;;;;;4.33;2.00;;;;;9.60;102824.00;;;;10506229;28;20726;-77
2022/03/19 18:58:23;;;;;;;3.80;1.93;;;;;9.50;102825.00;;;;10472796;28;20193;-77
2022/03/19 19:03:24;;;;;;;5.73;2.07;;;;;9.40;102827.00;;;;10547013;28;20236;-77
2022/03/19 19:08:27;;;;;;;5.77;2.13;;;;;9.30;102821.00;;;;10522800;28;20193;-77
2022/03/19 19:13:29;;;;;;;5.33;2.20;;;;;9.30;102826.00;;;;10522697;28;20840;-77
2022/03/19 19:18:31;;;;;;;8.17;2.10;;;;;9.30;102829.00;;;;10489276;28;20242;-77
2022/03/19 19:23:33;;;;;;;3.83;1.53;;;;;9.20;102831.00;;;;10505427;28;20251;-77
2022/03/19 19:28:36;;;;;;;14.73;3.00;;;;;9.10;102832.00;;;;10522114;28;20189;-77
2022/03/19 19:33:38;;;;;;;3.60;1.80;;;;;9.00;102828.00;;;;10504834;28;20190;-77
2022/03/19 19:38:40;;;;;;;5.43;2.13;;;;;9.00;102828.00;;;;10504773;28;20271;-77
2022/03/19 19:43:42;;;;;;;3.30;1.83;;;;;9.00;102833.00;;;;10504643;28;20262;-77
2022/03/19 19:48:44;;;;;;;3.90;1.73;;;;;8.90;102821.00;;;;10488118;28;20195;-77
2022/03/19 19:53:46;;;;;;;6.77;1.90;;;;;8.80;102830.00;;;;10463269;28;20249;-77
2022/03/19 19:58:48;;;;;;;2.87;1.60;;;;;8.70;102838.00;;;;10485768;28;20189;-77
2022/03/19 20:03:49;;;;;;;5.90;1.80;;;;;8.60;102835.00;;;;10488397;28;20687;-77
2022/03/19 20:08:51;;;;;;;4.13;1.80;;;;;8.50;102827.00;;;;10504987;28;20192;-77
2022/03/19 20:13:53;;;;;;;6.93;1.90;;;;;8.50;102839.00;;;;10505053;28;20238;-77
2022/03/19 20:18:55;;;;;;;4.37;2.00;;;;;8.40;102823.00;;;;10505318;28;20196;-76
2022/03/19 20:23:57;;;;;;;4.37;1.80;;;;;8.40;102832.00;;;;10488062;28;20209;-77
2022/03/19 20:28:58;;;;;;;6.77;2.27;;;;;8.30;102821.00;;;;10504651;28;20185;-78
2022/03/19 20:34:00;;;;;;;4.77;1.60;;;;;8.20;102822.00;;;;10485924;28;20208;-77
2022/03/19 20:39:02;;;;;;;4.33;1.60;;;;;8.10;102818.00;;;;10504030;28;20252;-77
2022/03/19 20:44:05;;;;;;;4.50;1.30;;;;;8.00;102807.00;;;;10504191;28;20254;-78
2022/03/19 20:50:13;;;;;;;3.40;1.70;;;;;8.00;102814.00;;;;10509751;28;20235;-77
2022/03/19 20:54:29;;;;;;;6.00;1.37;;;;;8.00;102823.00;;;;10486657;28;20196;-78
2022/03/19 20:59:31;;;;;;;4.43;1.47;;;;;7.90;102816.00;;;;10469313;28;20227;-77
2022/03/19 21:04:33;;;;;;;6.23;1.67;;;;;7.80;102812.00;;;;10479903;28;20217;-77
2022/03/19 21:09:35;;;;;;;5.93;1.60;;;;;7.70;102800.00;;;;10511252;28;20218;-77
2022/03/19 21:14:41;;;;;;;5.30;1.77;;;;;7.60;102805.00;;;;10511047;28;20219;-78
2022/03/19 21:19:43;;;;;;;4.87;1.77;;;;;7.50;102794.00;;;;10493485;28;20216;-77
2022/03/19 21:24:45;;;;;;;5.50;1.57;;;;;7.40;102795.00;;;;10493755;28;20197;-77
2022/03/19 21:29:47;;;;;;;4.93;2.07;;;;;7.30;102788.00;;;;10493751;28;20242;-78
2022/03/19 21:34:50;;;;;;;6.40;1.67;;;;;7.30;102780.00;;;;10494504;28;20219;-77
2022/03/19 21:45:12;;;;;;;4.23;1.77;;;;;7.10;102774.00;;;;10512336;28;20209;-77
2022/03/19 21:50:16;;;;;;;7.07;2.53;;;;;6.90;102775.00;;;;10495426;28;20191;-77
2022/03/19 21:55:18;;;;;;;4.73;1.97;;;;;6.90;102764.00;;;;10511579;28;20219;-77
2022/03/19 22:00:20;;;;;;;5.60;2.07;;;;;6.80;102772.00;;;;10493596;28;20601;-78
2022/03/19 22:05:22;;;;;;;3.50;1.70;;;;;6.70;102767.00;;;;10493869;28;20217;-78
2022/03/19 22:10:25;;;;;;;5.67;2.13;;;;;6.70;102762.00;;;;10510456;28;20196;-78
2022/03/19 22:15:27;;;;;;;2.70;1.93;;;;;6.60;102762.00;;;;10493773;28;20193;-77
2022/03/19 22:20:29;;;;;;;6.20;2.23;;;;;6.50;102753.00;;;;10511002;28;20199;-77
2022/03/19 22:25:32;;;;;;;8.03;2.03;;;;;6.40;102760.00;;;;10490190;28;20217;-78
2022/03/19 22:30:35;;;;;;;8.63;2.07;;;;;6.40;102753.00;;;;10484389;28;20857;-78
2022/03/19 22:35:37;;;;;;;4.60;1.60;;;;;6.40;102740.00;;;;10472651;28;20212;-78
2022/03/19 22:40:39;;;;;;;5.37;2.33;;;;;6.40;102738.00;;;;10492806;28;20189;-77
2022/03/19 22:45:42;;;;;;;3.97;2.00;;;;;6.30;102742.00;;;;10492099;28;20239;-78
2022/03/19 22:50:45;;;;;;;5.73;2.30;;;;;6.20;102736.00;;;;10525261;28;20204;-78
2022/03/19 22:55:46;;;;;;;6.27;2.50;;;;;6.20;102731.00;;;;10492567;28;20684;-77
2022/03/19 23:00:52;;;;;;;4.63;2.50;;;;;6.20;102720.00;;;;10492040;28;20197;-77
2022/03/19 23:05:55;;;;;;;5.60;2.20;;;;;6.10;102708.00;;;;10510969;28;20303;-78
2022/03/19 23:16:18;;;;;;;10.30;2.40;;;;;5.70;102701.00;;;;10524453;28;20600;-77
2022/03/19 23:21:20;;;;;;;8.27;2.30;;;;;5.60;102699.00;;;;10507261;28;20192;-78
2022/03/19 23:26:23;;;;;;;5.67;2.13;;;;;5.50;102687.00;;;;10491658;28;20201;-77
2022/03/19 23:31:25;;;;;;;5.00;2.50;;;;;5.40;102687.00;;;;10474238;28;20211;-77
2022/03/19 23:36:27;;;;;;;6.83;2.90;;;;;5.30;102673.00;;;;10494828;28;20227;-78
2022/03/19 23:41:29;;;;;;;8.40;2.60;;;;;5.40;102678.00;;;;10507302;28;20243;-78
2022/03/19 23:46:31;;;;;;;10.27;3.30;;;;;5.30;102660.00;;;;10490397;28;20199;-78
2022/03/19 23:51:33;;;;;;;9.70;3.77;;;;;5.40;102655.00;;;;10474422;28;20227;-77
2022/03/19 23:56:35;;;;;;;7.80;3.93;;;;;5.40;102650.00;;;;10473024;28;20188;-78
